KESF/ESF METAR and TAF weather

Enter ICAO airport designator
Station Type Date Time Source
KESF METAR 2021/01/27 13:53 UTC NOAA

KESF 271353Z AUTO VRB05G15KT 10SM FEW019 13/08 A3009 RMK AO2 SLP187 T01280083


Station Type Date Time Source
KESF Decoded METAR 2021/01/27 13:53 UTC NOAA

ALEXANDRIA ESLER RGNL AIRPORT , LA, United States (KESF) 31-24N 092-18W 28M
Jan 27, 2021 - 08:53 AM EST / 2021.01.27 1353 UTC
Wind: Variable at 6 MPH (5 KT) gusting to 17 MPH (15 KT):0
Visibility: 10 mile(s):0
Sky conditions: mostly clear
Temperature: 55.0 F (12.8 C)
Dew Point: 46.9 F (8.3 C)
Relative Humidity: 74%
Pressure (altimeter): 30.09 in. Hg (1018 hPa)
ob: KESF 271353Z AUTO VRB05G15KT 10SM FEW019 13/08 A3009 RMK AO2 SLP187 T01280083
cycle: 14

Station Type Date Time Source
KESF TAF UTC NOAA

Error!

Example: see airport list